sensor_id;sensor_type;location;lat;lon;timestamp;P1;durP1;ratioP1;P2;durP2;ratioP2
7108;SDS011;29079;41.930;25.558;2024-02-26T00:02:08;18.23;;;9.57;;
7108;SDS011;29079;41.930;25.558;2024-02-26T00:04:58;22.25;;;10.57;;
7108;SDS011;29079;41.930;25.558;2024-02-26T00:07:45;16.08;;;10.27;;
7108;SDS011;29079;41.930;25.558;2024-02-26T00:10:35;19.90;;;10.95;;
7108;SDS011;29079;41.930;25.558;2024-02-26T00:13:23;25.17;;;11.48;;
7108;SDS011;29079;41.930;25.558;2024-02-26T00:16:11;15.10;;;10.70;;
7108;SDS011;29079;41.930;25.558;2024-02-26T00:18:59;31.10;;;12.20;;
7108;SDS011;29079;41.930;25.558;2024-02-26T00:21:49;22.38;;;11.02;;
7108;SDS011;29079;41.930;25.558;2024-02-26T00:24:37;33.10;;;11.95;;
7108;SDS011;29079;41.930;25.558;2024-02-26T00:27:27;20.02;;;11.00;;
7108;SDS011;29079;41.930;25.558;2024-02-26T00:30:16;18.15;;;10.45;;
7108;SDS011;29079;41.930;25.558;2024-02-26T00:33:04;22.92;;;10.23;;
7108;SDS011;29079;41.930;25.558;2024-02-26T00:35:52;21.65;;;11.68;;
7108;SDS011;29079;41.930;25.558;2024-02-26T00:38:42;29.65;;;11.93;;
7108;SDS011;29079;41.930;25.558;2024-02-26T00:41:31;23.92;;;11.07;;
7108;SDS011;29079;41.930;25.558;2024-02-26T00:44:19;22.77;;;11.25;;
7108;SDS011;29079;41.930;25.558;2024-02-26T00:47:07;15.35;;;11.43;;
7108;SDS011;29079;41.930;25.558;2024-02-26T00:49:55;25.25;;;11.60;;
7108;SDS011;29079;41.930;25.558;2024-02-26T00:52:43;23.90;;;11.07;;
7108;SDS011;29079;41.930;25.558;2024-02-26T00:55:33;18.42;;;11.30;;
7108;SDS011;29079;41.930;25.558;2024-02-26T00:58:21;23.20;;;11.05;;
7108;SDS011;29079;41.930;25.558;2024-02-26T01:01:09;27.60;;;12.27;;
7108;SDS011;29079;41.930;25.558;2024-02-26T01:03:57;26.48;;;11.85;;
7108;SDS011;29079;41.930;25.558;2024-02-26T01:06:45;27.15;;;11.32;;
7108;SDS011;29079;41.930;25.558;2024-02-26T01:09:33;19.38;;;12.20;;
7108;SDS011;29079;41.930;25.558;2024-02-26T01:12:23;24.02;;;11.65;;
7108;SDS011;29079;41.930;25.558;2024-02-26T01:15:11;24.08;;;13.35;;
7108;SDS011;29079;41.930;25.558;2024-02-26T01:17:59;25.40;;;13.63;;
7108;SDS011;29079;41.930;25.558;2024-02-26T01:20:47;24.92;;;14.45;;
7108;SDS011;29079;41.930;25.558;2024-02-26T01:23:35;37.58;;;13.00;;
7108;SDS011;29079;41.930;25.558;2024-02-26T01:26:23;24.10;;;12.70;;
7108;SDS011;29079;41.930;25.558;2024-02-26T01:29:13;23.52;;;12.35;;
7108;SDS011;29079;41.930;25.558;2024-02-26T01:32:01;23.58;;;13.18;;
7108;SDS011;29079;41.930;25.558;2024-02-26T01:34:51;21.63;;;12.20;;
7108;SDS011;29079;41.930;25.558;2024-02-26T01:37:39;28.85;;;15.52;;
7108;SDS011;29079;41.930;25.558;2024-02-26T01:40:27;23.25;;;15.65;;
7108;SDS011;29079;41.930;25.558;2024-02-26T01:43:16;25.52;;;14.80;;
7108;SDS011;29079;41.930;25.558;2024-02-26T01:46:05;22.40;;;13.00;;
7108;SDS011;29079;41.930;25.558;2024-02-26T01:48:54;21.83;;;13.02;;
7108;SDS011;29079;41.930;25.558;2024-02-26T01:51:42;22.30;;;12.00;;
7108;SDS011;29079;41.930;25.558;2024-02-26T01:54:32;19.45;;;13.90;;
7108;SDS011;29079;41.930;25.558;2024-02-26T01:57:22;17.83;;;11.88;;
7108;SDS011;29079;41.930;25.558;2024-02-26T02:00:10;21.88;;;12.07;;
7108;SDS011;29079;41.930;25.558;2024-02-26T02:03:01;23.08;;;13.00;;
7108;SDS011;29079;41.930;25.558;2024-02-26T02:05:51;19.23;;;11.23;;
7108;SDS011;29079;41.930;25.558;2024-02-26T02:08:39;23.00;;;11.70;;
7108;SDS011;29079;41.930;25.558;2024-02-26T02:11:27;15.57;;;10.52;;
7108;SDS011;29079;41.930;25.558;2024-02-26T02:14:16;19.55;;;11.57;;
7108;SDS011;29079;41.930;25.558;2024-02-26T02:17:04;17.05;;;11.10;;
7108;SDS011;29079;41.930;25.558;2024-02-26T02:19:53;21.02;;;11.60;;
7108;SDS011;29079;41.930;25.558;2024-02-26T02:22:43;22.80;;;12.15;;
7108;SDS011;29079;41.930;25.558;2024-02-26T02:25:31;22.88;;;12.18;;
7108;SDS011;29079;41.930;25.558;2024-02-26T02:28:19;19.40;;;11.75;;
7108;SDS011;29079;41.930;25.558;2024-02-26T02:31:07;20.65;;;11.15;;
7108;SDS011;29079;41.930;25.558;2024-02-26T02:33:55;23.35;;;13.13;;
7108;SDS011;29079;41.930;25.558;2024-02-26T02:36:51;23.60;;;13.45;;
7108;SDS011;29079;41.930;25.558;2024-02-26T02:39:41;28.42;;;15.30;;
7108;SDS011;29079;41.930;25.558;2024-02-26T02:42:29;24.42;;;13.88;;
7108;SDS011;29079;41.930;25.558;2024-02-26T02:45:17;30.63;;;15.63;;
7108;SDS011;29079;41.930;25.558;2024-02-26T02:48:06;27.38;;;15.27;;
7108;SDS011;29079;41.930;25.558;2024-02-26T02:50:54;24.13;;;13.68;;
7108;SDS011;29079;41.930;25.558;2024-02-26T02:53:43;27.20;;;14.27;;
7108;SDS011;29079;41.930;25.558;2024-02-26T02:56:32;25.33;;;14.48;;
7108;SDS011;29079;41.930;25.558;2024-02-26T02:59:20;20.73;;;14.57;;
7108;SDS011;29079;41.930;25.558;2024-02-26T03:02:08;18.88;;;12.90;;
7108;SDS011;29079;41.930;25.558;2024-02-26T03:04:56;20.98;;;14.65;;
7108;SDS011;29079;41.930;25.558;2024-02-26T03:07:44;29.90;;;13.13;;
7108;SDS011;29079;41.930;25.558;2024-02-26T03:10:33;21.50;;;13.52;;
7108;SDS011;29079;41.930;25.558;2024-02-26T03:13:22;28.77;;;15.95;;
7108;SDS011;29079;41.930;25.558;2024-02-26T03:16:10;22.17;;;12.77;;
7108;SDS011;29079;41.930;25.558;2024-02-26T03:18:58;25.60;;;14.60;;
7108;SDS011;29079;41.930;25.558;2024-02-26T03:21:46;20.45;;;14.10;;
7108;SDS011;29079;41.930;25.558;2024-02-26T03:24:34;23.15;;;14.55;;
7108;SDS011;29079;41.930;25.558;2024-02-26T03:27:22;23.40;;;13.32;;
7108;SDS011;29079;41.930;25.558;2024-02-26T03:30:12;21.75;;;13.35;;
7108;SDS011;29079;41.930;25.558;2024-02-26T03:33:00;24.35;;;15.07;;
7108;SDS011;29079;41.930;25.558;2024-02-26T03:35:49;29.60;;;14.85;;
7108;SDS011;29079;41.930;25.558;2024-02-26T03:38:37;32.42;;;15.75;;
7108;SDS011;29079;41.930;25.558;2024-02-26T03:41:25;27.00;;;16.30;;
7108;SDS011;29079;41.930;25.558;2024-02-26T03:44:13;23.20;;;14.20;;
7108;SDS011;29079;41.930;25.558;2024-02-26T03:47:03;26.02;;;15.93;;
7108;SDS011;29079;41.930;25.558;2024-02-26T03:49:51;22.60;;;14.52;;
7108;SDS011;29079;41.930;25.558;2024-02-26T03:52:39;26.25;;;15.30;;
7108;SDS011;29079;41.930;25.558;2024-02-26T03:55:27;24.63;;;14.57;;
7108;SDS011;29079;41.930;25.558;2024-02-26T03:58:15;28.73;;;15.30;;
7108;SDS011;29079;41.930;25.558;2024-02-26T04:01:03;24.73;;;14.00;;
7108;SDS011;29079;41.930;25.558;2024-02-26T04:03:53;25.08;;;15.25;;
7108;SDS011;29079;41.930;25.558;2024-02-26T04:06:44;26.88;;;14.43;;
7108;SDS011;29079;41.930;25.558;2024-02-26T04:09:33;23.73;;;16.00;;
7108;SDS011;29079;41.930;25.558;2024-02-26T04:12:21;26.08;;;16.10;;
7108;SDS011;29079;41.930;25.558;2024-02-26T04:15:09;27.60;;;15.30;;
7108;SDS011;29079;41.930;25.558;2024-02-26T04:17:58;27.35;;;15.90;;
7108;SDS011;29079;41.930;25.558;2024-02-26T04:20:47;39.75;;;18.08;;
7108;SDS011;29079;41.930;25.558;2024-02-26T04:23:38;30.67;;;15.93;;
7108;SDS011;29079;41.930;25.558;2024-02-26T04:26:26;26.17;;;16.10;;
7108;SDS011;29079;41.930;25.558;2024-02-26T04:29:14;25.05;;;14.02;;
7108;SDS011;29079;41.930;25.558;2024-02-26T04:32:02;21.35;;;15.32;;
7108;SDS011;29079;41.930;25.558;2024-02-26T04:34:51;24.05;;;16.55;;
7108;SDS011;29079;41.930;25.558;2024-02-26T04:37:41;26.83;;;17.77;;
7108;SDS011;29079;41.930;25.558;2024-02-26T04:40:29;29.20;;;18.15;;
7108;SDS011;29079;41.930;25.558;2024-02-26T04:43:17;25.30;;;17.27;;
7108;SDS011;29079;41.930;25.558;2024-02-26T04:46:05;31.70;;;18.95;;
7108;SDS011;29079;41.930;25.558;2024-02-26T04:48:54;27.08;;;16.85;;
7108;SDS011;29079;41.930;25.558;2024-02-26T04:51:43;36.08;;;18.85;;
7108;SDS011;29079;41.930;25.558;2024-02-26T04:54:32;27.73;;;17.80;;
7108;SDS011;29079;41.930;25.558;2024-02-26T04:57:21;26.65;;;16.10;;
7108;SDS011;29079;41.930;25.558;2024-02-26T05:00:10;26.15;;;15.98;;
7108;SDS011;29079;41.930;25.558;2024-02-26T05:02:59;25.50;;;17.42;;
7108;SDS011;29079;41.930;25.558;2024-02-26T05:05:47;28.42;;;18.98;;
7108;SDS011;29079;41.930;25.558;2024-02-26T05:08:36;31.75;;;19.25;;
7108;SDS011;29079;41.930;25.558;2024-02-26T05:11:26;30.38;;;17.63;;
7108;SDS011;29079;41.930;25.558;2024-02-26T05:14:14;39.25;;;20.67;;
7108;SDS011;29079;41.930;25.558;2024-02-26T05:17:02;29.95;;;20.10;;
7108;SDS011;29079;41.930;25.558;2024-02-26T05:19:52;30.85;;;19.92;;
7108;SDS011;29079;41.930;25.558;2024-02-26T05:22:40;35.67;;;20.20;;
7108;SDS011;29079;41.930;25.558;2024-02-26T05:25:28;32.13;;;19.70;;
7108;SDS011;29079;41.930;25.558;2024-02-26T05:28:17;34.10;;;20.90;;
7108;SDS011;29079;41.930;25.558;2024-02-26T05:31:07;36.10;;;19.98;;
7108;SDS011;29079;41.930;25.558;2024-02-26T05:33:55;36.95;;;22.40;;
7108;SDS011;29079;41.930;25.558;2024-02-26T05:36:44;36.28;;;22.45;;
7108;SDS011;29079;41.930;25.558;2024-02-26T05:39:32;35.88;;;22.17;;
7108;SDS011;29079;41.930;25.558;2024-02-26T05:42:20;38.03;;;22.65;;
7108;SDS011;29079;41.930;25.558;2024-02-26T05:45:10;41.78;;;24.95;;
7108;SDS011;29079;41.930;25.558;2024-02-26T05:47:58;38.45;;;21.88;;
7108;SDS011;29079;41.930;25.558;2024-02-26T05:50:46;37.20;;;20.98;;
7108;SDS011;29079;41.930;25.558;2024-02-26T05:53:35;31.70;;;20.83;;
7108;SDS011;29079;41.930;25.558;2024-02-26T05:56:23;32.97;;;21.17;;
7108;SDS011;29079;41.930;25.558;2024-02-26T05:59:11;35.15;;;21.02;;
7108;SDS011;29079;41.930;25.558;2024-02-26T06:02:03;37.35;;;20.15;;
7108;SDS011;29079;41.930;25.558;2024-02-26T06:04:51;29.92;;;18.75;;
7108;SDS011;29079;41.930;25.558;2024-02-26T06:07:39;33.80;;;20.67;;
7108;SDS011;29079;41.930;25.558;2024-02-26T06:10:27;47.65;;;20.98;;
7108;SDS011;29079;41.930;25.558;2024-02-26T06:13:15;42.10;;;21.35;;
7108;SDS011;29079;41.930;25.558;2024-02-26T06:16:04;38.60;;;24.05;;
7108;SDS011;29079;41.930;25.558;2024-02-26T06:18:53;43.42;;;25.80;;
7108;SDS011;29079;41.930;25.558;2024-02-26T06:21:43;44.45;;;25.77;;
7108;SDS011;29079;41.930;25.558;2024-02-26T06:24:31;43.70;;;25.77;;
7108;SDS011;29079;41.930;25.558;2024-02-26T06:27:19;38.17;;;22.48;;
7108;SDS011;29079;41.930;25.558;2024-02-26T06:30:08;37.17;;;20.35;;
7108;SDS011;29079;41.930;25.558;2024-02-26T06:32:57;40.00;;;22.75;;
7108;SDS011;29079;41.930;25.558;2024-02-26T06:35:47;37.20;;;22.58;;
7108;SDS011;29079;41.930;25.558;2024-02-26T06:38:35;35.70;;;21.27;;
7108;SDS011;29079;41.930;25.558;2024-02-26T06:41:24;41.22;;;20.30;;
7108;SDS011;29079;41.930;25.558;2024-02-26T06:44:13;35.10;;;20.30;;
7108;SDS011;29079;41.930;25.558;2024-02-26T06:47:01;37.00;;;20.40;;
7108;SDS011;29079;41.930;25.558;2024-02-26T06:49:50;31.35;;;20.90;;
7108;SDS011;29079;41.930;25.558;2024-02-26T06:52:39;33.90;;;20.15;;
7108;SDS011;29079;41.930;25.558;2024-02-26T06:55:28;35.40;;;21.05;;
7108;SDS011;29079;41.930;25.558;2024-02-26T06:58:16;41.92;;;21.15;;
7108;SDS011;29079;41.930;25.558;2024-02-26T07:01:04;38.60;;;22.70;;
7108;SDS011;29079;41.930;25.558;2024-02-26T07:03:54;34.15;;;21.10;;
7108;SDS011;29079;41.930;25.558;2024-02-26T07:06:42;38.05;;;21.20;;
7108;SDS011;29079;41.930;25.558;2024-02-26T07:09:34;30.38;;;19.38;;
7108;SDS011;29079;41.930;25.558;2024-02-26T07:12:22;37.65;;;20.33;;
7108;SDS011;29079;41.930;25.558;2024-02-26T07:15:10;32.63;;;21.20;;
7108;SDS011;29079;41.930;25.558;2024-02-26T07:17:59;40.45;;;21.25;;
7108;SDS011;29079;41.930;25.558;2024-02-26T07:20:50;35.35;;;21.80;;
7108;SDS011;29079;41.930;25.558;2024-02-26T07:23:38;39.53;;;20.65;;
7108;SDS011;29079;41.930;25.558;2024-02-26T07:26:27;33.92;;;19.13;;
7108;SDS011;29079;41.930;25.558;2024-02-26T07:29:17;34.20;;;19.67;;
7108;SDS011;29079;41.930;25.558;2024-02-26T07:32:05;45.03;;;22.00;;
7108;SDS011;29079;41.930;25.558;2024-02-26T07:34:53;42.85;;;21.42;;
7108;SDS011;29079;41.930;25.558;2024-02-26T07:37:41;44.63;;;21.08;;
7108;SDS011;29079;41.930;25.558;2024-02-26T07:40:30;41.95;;;23.83;;
7108;SDS011;29079;41.930;25.558;2024-02-26T07:43:19;43.78;;;22.45;;
7108;SDS011;29079;41.930;25.558;2024-02-26T07:46:07;38.03;;;21.38;;
7108;SDS011;29079;41.930;25.558;2024-02-26T07:48:59;43.10;;;23.55;;
7108;SDS011;29079;41.930;25.558;2024-02-26T07:51:47;48.70;;;24.02;;
7108;SDS011;29079;41.930;25.558;2024-02-26T07:54:35;34.10;;;20.77;;
7108;SDS011;29079;41.930;25.558;2024-02-26T07:57:23;40.20;;;23.55;;
7108;SDS011;29079;41.930;25.558;2024-02-26T08:00:13;35.58;;;21.40;;
7108;SDS011;29079;41.930;25.558;2024-02-26T08:03:04;41.97;;;23.33;;
7108;SDS011;29079;41.930;25.558;2024-02-26T08:05:52;44.40;;;22.15;;
7108;SDS011;29079;41.930;25.558;2024-02-26T08:08:40;30.27;;;19.10;;
7108;SDS011;29079;41.930;25.558;2024-02-26T08:11:28;32.00;;;18.67;;
7108;SDS011;29079;41.930;25.558;2024-02-26T08:14:17;37.42;;;16.98;;
7108;SDS011;29079;41.930;25.558;2024-02-26T08:17:06;30.15;;;16.67;;
7108;SDS011;29079;41.930;25.558;2024-02-26T08:19:54;28.95;;;17.67;;
7108;SDS011;29079;41.930;25.558;2024-02-26T08:22:43;26.50;;;15.25;;
7108;SDS011;29079;41.930;25.558;2024-02-26T08:25:31;26.27;;;16.30;;
7108;SDS011;29079;41.930;25.558;2024-02-26T08:28:19;35.30;;;17.73;;
7108;SDS011;29079;41.930;25.558;2024-02-26T08:31:07;23.33;;;15.07;;
7108;SDS011;29079;41.930;25.558;2024-02-26T08:33:57;35.47;;;19.27;;
7108;SDS011;29079;41.930;25.558;2024-02-26T08:36:47;27.38;;;17.05;;
7108;SDS011;29079;41.930;25.558;2024-02-26T08:39:36;30.38;;;16.17;;
7108;SDS011;29079;41.930;25.558;2024-02-26T08:42:25;28.75;;;16.42;;
7108;SDS011;29079;41.930;25.558;2024-02-26T08:45:14;24.52;;;15.05;;
7108;SDS011;29079;41.930;25.558;2024-02-26T08:48:02;30.48;;;17.52;;
7108;SDS011;29079;41.930;25.558;2024-02-26T08:50:51;27.67;;;17.38;;
7108;SDS011;29079;41.930;25.558;2024-02-26T08:53:39;31.63;;;17.00;;
7108;SDS011;29079;41.930;25.558;2024-02-26T08:56:29;31.00;;;17.00;;
7108;SDS011;29079;41.930;25.558;2024-02-26T08:59:17;33.15;;;17.83;;
7108;SDS011;29079;41.930;25.558;2024-02-26T09:02:08;34.20;;;18.05;;
7108;SDS011;29079;41.930;25.558;2024-02-26T09:04:56;27.98;;;17.42;;
7108;SDS011;29079;41.930;25.558;2024-02-26T09:07:46;27.67;;;16.77;;
7108;SDS011;29079;41.930;25.558;2024-02-26T09:10:34;26.02;;;16.02;;
7108;SDS011;29079;41.930;25.558;2024-02-26T09:13:22;27.05;;;14.80;;
7108;SDS011;29079;41.930;25.558;2024-02-26T09:16:11;27.38;;;16.20;;
7108;SDS011;29079;41.930;25.558;2024-02-26T09:18:59;37.00;;;15.13;;
7108;SDS011;29079;41.930;25.558;2024-02-26T09:21:47;21.48;;;14.18;;
7108;SDS011;29079;41.930;25.558;2024-02-26T09:24:36;33.65;;;16.63;;
7108;SDS011;29079;41.930;25.558;2024-02-26T09:27:24;25.45;;;14.80;;
7108;SDS011;29079;41.930;25.558;2024-02-26T09:30:13;24.90;;;15.15;;
7108;SDS011;29079;41.930;25.558;2024-02-26T09:33:01;26.05;;;15.60;;
7108;SDS011;29079;41.930;25.558;2024-02-26T09:35:50;26.80;;;14.55;;
7108;SDS011;29079;41.930;25.558;2024-02-26T09:38:38;25.80;;;14.27;;
7108;SDS011;29079;41.930;25.558;2024-02-26T09:41:43;25.27;;;14.82;;
7108;SDS011;29079;41.930;25.558;2024-02-26T09:44:32;30.13;;;15.82;;
7108;SDS011;29079;41.930;25.558;2024-02-26T09:47:24;29.13;;;17.17;;
7108;SDS011;29079;41.930;25.558;2024-02-26T09:50:13;28.30;;;15.27;;
7108;SDS011;29079;41.930;25.558;2024-02-26T09:53:04;23.83;;;14.70;;
7108;SDS011;29079;41.930;25.558;2024-02-26T09:55:57;25.55;;;14.75;;
7108;SDS011;29079;41.930;25.558;2024-02-26T09:58:46;22.70;;;15.13;;
7108;SDS011;29079;41.930;25.558;2024-02-26T10:01:40;23.90;;;14.85;;
7108;SDS011;29079;41.930;25.558;2024-02-26T10:04:30;28.20;;;15.60;;
7108;SDS011;29079;41.930;25.558;2024-02-26T10:07:19;27.27;;;15.38;;
7108;SDS011;29079;41.930;25.558;2024-02-26T10:10:08;22.10;;;13.95;;
7108;SDS011;29079;41.930;25.558;2024-02-26T10:12:57;22.17;;;12.80;;
7108;SDS011;29079;41.930;25.558;2024-02-26T10:15:48;23.73;;;13.10;;
7108;SDS011;29079;41.930;25.558;2024-02-26T10:18:46;21.42;;;12.82;;
7108;SDS011;29079;41.930;25.558;2024-02-26T10:21:38;26.48;;;13.88;;
7108;SDS011;29079;41.930;25.558;2024-02-26T10:24:26;25.38;;;12.40;;
7108;SDS011;29079;41.930;25.558;2024-02-26T10:27:14;19.13;;;13.32;;
7108;SDS011;29079;41.930;25.558;2024-02-26T10:30:03;23.95;;;14.23;;
7108;SDS011;29079;41.930;25.558;2024-02-26T10:32:53;19.00;;;13.73;;
7108;SDS011;29079;41.930;25.558;2024-02-26T10:35:45;25.17;;;14.10;;
7108;SDS011;29079;41.930;25.558;2024-02-26T10:38:34;17.50;;;12.65;;
7108;SDS011;29079;41.930;25.558;2024-02-26T10:41:23;20.88;;;11.82;;
7108;SDS011;29079;41.930;25.558;2024-02-26T10:44:11;19.73;;;13.27;;
7108;SDS011;29079;41.930;25.558;2024-02-26T10:47:04;19.20;;;12.47;;
7108;SDS011;29079;41.930;25.558;2024-02-26T10:49:57;19.60;;;12.88;;
7108;SDS011;29079;41.930;25.558;2024-02-26T10:52:46;23.85;;;13.10;;
7108;SDS011;29079;41.930;25.558;2024-02-26T10:55:34;20.80;;;13.07;;
7108;SDS011;29079;41.930;25.558;2024-02-26T10:58:24;21.52;;;12.60;;
7108;SDS011;29079;41.930;25.558;2024-02-26T11:01:12;18.90;;;11.88;;
7108;SDS011;29079;41.930;25.558;2024-02-26T11:04:01;22.90;;;11.88;;
7108;SDS011;29079;41.930;25.558;2024-02-26T11:06:52;20.10;;;11.13;;
7108;SDS011;29079;41.930;25.558;2024-02-26T11:09:44;20.43;;;11.00;;
7108;SDS011;29079;41.930;25.558;2024-02-26T11:12:38;24.70;;;11.02;;
7108;SDS011;29079;41.930;25.558;2024-02-26T11:15:27;17.75;;;11.48;;
7108;SDS011;29079;41.930;25.558;2024-02-26T11:18:18;18.52;;;12.38;;
7108;SDS011;29079;41.930;25.558;2024-02-26T11:21:08;16.85;;;9.93;;
7108;SDS011;29079;41.930;25.558;2024-02-26T11:23:58;26.92;;;12.48;;
7108;SDS011;29079;41.930;25.558;2024-02-26T11:26:47;19.45;;;11.90;;
7108;SDS011;29079;41.930;25.558;2024-02-26T11:29:42;23.15;;;12.38;;
7108;SDS011;29079;41.930;25.558;2024-02-26T11:32:35;18.23;;;11.43;;
7108;SDS011;29079;41.930;25.558;2024-02-26T11:35:23;28.17;;;12.88;;
7108;SDS011;29079;41.930;25.558;2024-02-26T11:38:16;18.25;;;12.77;;
7108;SDS011;29079;41.930;25.558;2024-02-26T11:41:08;19.00;;;11.50;;
7108;SDS011;29079;41.930;25.558;2024-02-26T11:43:57;18.23;;;10.75;;
7108;SDS011;29079;41.930;25.558;2024-02-26T11:46:47;12.75;;;9.13;;
7108;SDS011;29079;41.930;25.558;2024-02-26T11:49:35;13.38;;;9.32;;
7108;SDS011;29079;41.930;25.558;2024-02-26T11:52:23;15.93;;;9.50;;
7108;SDS011;29079;41.930;25.558;2024-02-26T11:55:12;15.40;;;10.18;;
7108;SDS011;29079;41.930;25.558;2024-02-26T11:58:21;20.60;;;11.55;;
7108;SDS011;29079;41.930;25.558;2024-02-26T12:04:29;19.50;;;9.90;;
7108;SDS011;29079;41.930;25.558;2024-02-26T12:07:18;19.42;;;9.30;;
7108;SDS011;29079;41.930;25.558;2024-02-26T12:10:14;18.67;;;10.55;;
7108;SDS011;29079;41.930;25.558;2024-02-26T12:13:05;12.50;;;8.32;;
7108;SDS011;29079;41.930;25.558;2024-02-26T12:15:57;19.17;;;9.55;;
7108;SDS011;29079;41.930;25.558;2024-02-26T12:18:46;15.25;;;9.48;;
7108;SDS011;29079;41.930;25.558;2024-02-26T12:21:35;18.40;;;10.85;;
7108;SDS011;29079;41.930;25.558;2024-02-26T12:24:24;16.17;;;9.85;;
7108;SDS011;29079;41.930;25.558;2024-02-26T12:27:13;13.23;;;9.18;;
7108;SDS011;29079;41.930;25.558;2024-02-26T12:30:02;17.10;;;9.82;;
7108;SDS011;29079;41.930;25.558;2024-02-26T12:32:52;19.10;;;10.23;;
7108;SDS011;29079;41.930;25.558;2024-02-26T12:35:44;13.70;;;8.18;;
7108;SDS011;29079;41.930;25.558;2024-02-26T12:38:34;14.93;;;9.07;;
7108;SDS011;29079;41.930;25.558;2024-02-26T12:41:23;15.63;;;9.07;;
7108;SDS011;29079;41.930;25.558;2024-02-26T12:44:12;15.73;;;8.25;;
7108;SDS011;29079;41.930;25.558;2024-02-26T12:47:01;16.45;;;9.82;;
7108;SDS011;29079;41.930;25.558;2024-02-26T12:49:51;12.23;;;9.32;;
7108;SDS011;29079;41.930;25.558;2024-02-26T12:52:39;16.92;;;9.38;;
7108;SDS011;29079;41.930;25.558;2024-02-26T12:55:31;14.57;;;8.45;;
7108;SDS011;29079;41.930;25.558;2024-02-26T12:58:21;23.42;;;9.45;;
7108;SDS011;29079;41.930;25.558;2024-02-26T13:01:13;20.52;;;9.88;;
7108;SDS011;29079;41.930;25.558;2024-02-26T13:04:02;22.90;;;10.52;;
7108;SDS011;29079;41.930;25.558;2024-02-26T13:06:54;16.13;;;8.90;;
7108;SDS011;29079;41.930;25.558;2024-02-26T13:09:47;16.88;;;10.07;;
7108;SDS011;29079;41.930;25.558;2024-02-26T13:12:35;20.25;;;10.18;;
7108;SDS011;29079;41.930;25.558;2024-02-26T13:15:23;19.30;;;9.75;;
7108;SDS011;29079;41.930;25.558;2024-02-26T13:18:11;20.45;;;9.52;;
7108;SDS011;29079;41.930;25.558;2024-02-26T13:21:08;12.35;;;8.73;;
7108;SDS011;29079;41.930;25.558;2024-02-26T13:23:59;13.57;;;9.50;;
7108;SDS011;29079;41.930;25.558;2024-02-26T13:26:53;19.55;;;9.77;;
7108;SDS011;29079;41.930;25.558;2024-02-26T13:29:42;18.20;;;10.15;;
7108;SDS011;29079;41.930;25.558;2024-02-26T13:32:32;17.23;;;9.57;;
7108;SDS011;29079;41.930;25.558;2024-02-26T13:35:21;15.40;;;10.25;;
7108;SDS011;29079;41.930;25.558;2024-02-26T13:38:09;17.48;;;10.68;;
7108;SDS011;29079;41.930;25.558;2024-02-26T13:40:59;21.55;;;11.15;;
7108;SDS011;29079;41.930;25.558;2024-02-26T13:43:47;19.50;;;12.23;;
7108;SDS011;29079;41.930;25.558;2024-02-26T13:46:36;19.58;;;10.30;;
7108;SDS011;29079;41.930;25.558;2024-02-26T13:49:24;14.93;;;10.27;;
7108;SDS011;29079;41.930;25.558;2024-02-26T13:52:13;16.95;;;10.15;;
7108;SDS011;29079;41.930;25.558;2024-02-26T13:55:01;19.50;;;11.25;;
7108;SDS011;29079;41.930;25.558;2024-02-26T13:57:51;20.80;;;10.98;;
7108;SDS011;29079;41.930;25.558;2024-02-26T14:00:40;15.23;;;10.10;;
7108;SDS011;29079;41.930;25.558;2024-02-26T14:03:29;18.95;;;11.02;;
7108;SDS011;29079;41.930;25.558;2024-02-26T14:06:18;18.25;;;11.18;;
7108;SDS011;29079;41.930;25.558;2024-02-26T14:09:06;24.98;;;11.68;;
7108;SDS011;29079;41.930;25.558;2024-02-26T14:11:54;18.48;;;10.40;;
7108;SDS011;29079;41.930;25.558;2024-02-26T14:14:43;18.02;;;11.15;;
7108;SDS011;29079;41.930;25.558;2024-02-26T14:17:35;21.55;;;10.50;;
7108;SDS011;29079;41.930;25.558;2024-02-26T14:20:23;18.10;;;10.35;;
7108;SDS011;29079;41.930;25.558;2024-02-26T14:23:14;22.20;;;11.77;;
7108;SDS011;29079;41.930;25.558;2024-02-26T14:26:02;29.73;;;12.55;;
7108;SDS011;29079;41.930;25.558;2024-02-26T14:28:50;23.10;;;11.70;;
7108;SDS011;29079;41.930;25.558;2024-02-26T14:31:39;20.00;;;11.90;;
7108;SDS011;29079;41.930;25.558;2024-02-26T14:34:30;18.48;;;10.73;;
7108;SDS011;29079;41.930;25.558;2024-02-26T14:37:19;14.90;;;9.25;;
7108;SDS011;29079;41.930;25.558;2024-02-26T14:40:07;22.30;;;9.07;;
7108;SDS011;29079;41.930;25.558;2024-02-26T14:42:56;13.88;;;7.93;;
7108;SDS011;29079;41.930;25.558;2024-02-26T14:45:45;13.77;;;8.27;;
7108;SDS011;29079;41.930;25.558;2024-02-26T14:48:35;20.60;;;10.15;;
7108;SDS011;29079;41.930;25.558;2024-02-26T14:51:23;12.57;;;7.97;;
7108;SDS011;29079;41.930;25.558;2024-02-26T14:54:11;14.68;;;10.65;;
7108;SDS011;29079;41.930;25.558;2024-02-26T14:57:00;16.08;;;10.45;;
7108;SDS011;29079;41.930;25.558;2024-02-26T14:59:48;22.02;;;10.30;;
7108;SDS011;29079;41.930;25.558;2024-02-26T15:02:36;16.10;;;9.80;;
7108;SDS011;29079;41.930;25.558;2024-02-26T15:05:26;14.15;;;9.60;;
7108;SDS011;29079;41.930;25.558;2024-02-26T15:08:14;20.20;;;8.93;;
7108;SDS011;29079;41.930;25.558;2024-02-26T15:11:03;23.38;;;10.05;;
7108;SDS011;29079;41.930;25.558;2024-02-26T15:13:51;17.40;;;9.80;;
7108;SDS011;29079;41.930;25.558;2024-02-26T15:16:39;23.83;;;9.73;;
7108;SDS011;29079;41.930;25.558;2024-02-26T15:19:28;28.42;;;10.07;;
7108;SDS011;29079;41.930;25.558;2024-02-26T15:22:17;17.35;;;9.98;;
7108;SDS011;29079;41.930;25.558;2024-02-26T15:25:06;28.17;;;11.90;;
7108;SDS011;29079;41.930;25.558;2024-02-26T15:27:58;24.48;;;12.18;;
7108;SDS011;29079;41.930;25.558;2024-02-26T15:30:46;20.98;;;9.50;;
7108;SDS011;29079;41.930;25.558;2024-02-26T15:33:35;19.25;;;10.07;;
7108;SDS011;29079;41.930;25.558;2024-02-26T15:36:24;24.42;;;10.13;;
7108;SDS011;29079;41.930;25.558;2024-02-26T15:39:13;24.70;;;10.98;;
7108;SDS011;29079;41.930;25.558;2024-02-26T15:42:01;29.45;;;12.45;;
7108;SDS011;29079;41.930;25.558;2024-02-26T15:44:49;22.48;;;11.52;;
7108;SDS011;29079;41.930;25.558;2024-02-26T15:47:37;27.25;;;13.73;;
7108;SDS011;29079;41.930;25.558;2024-02-26T15:50:26;23.42;;;12.85;;
7108;SDS011;29079;41.930;25.558;2024-02-26T15:53:14;26.25;;;12.80;;
7108;SDS011;29079;41.930;25.558;2024-02-26T15:56:04;24.48;;;13.85;;
7108;SDS011;29079;41.930;25.558;2024-02-26T15:58:53;17.73;;;12.00;;
7108;SDS011;29079;41.930;25.558;2024-02-26T16:01:41;38.15;;;23.48;;
7108;SDS011;29079;41.930;25.558;2024-02-26T16:04:30;55.92;;;31.67;;
7108;SDS011;29079;41.930;25.558;2024-02-26T16:07:19;65.32;;;31.90;;
7108;SDS011;29079;41.930;25.558;2024-02-26T16:10:13;67.35;;;35.42;;
7108;SDS011;29079;41.930;25.558;2024-02-26T16:13:02;71.97;;;37.95;;
7108;SDS011;29079;41.930;25.558;2024-02-26T16:15:52;72.97;;;43.17;;
7108;SDS011;29079;41.930;25.558;2024-02-26T16:18:46;69.45;;;39.47;;
7108;SDS011;29079;41.930;25.558;2024-02-26T16:21:34;76.60;;;41.92;;
7108;SDS011;29079;41.930;25.558;2024-02-26T16:24:23;75.47;;;41.63;;
7108;SDS011;29079;41.930;25.558;2024-02-26T16:27:11;55.00;;;33.15;;
7108;SDS011;29079;41.930;25.558;2024-02-26T16:30:02;66.40;;;38.97;;
7108;SDS011;29079;41.930;25.558;2024-02-26T16:32:51;66.45;;;37.33;;
7108;SDS011;29079;41.930;25.558;2024-02-26T16:35:39;62.05;;;35.38;;